Time;durP1;ratioP1;P1;durP2;ratioP2;P2;SDS_P1;SDS_P2;PMS_P1;PMS_P2;Temp;Humidity;BMP_temperature;BMP_pressure;BME280_temperature;BME280_humidity;BME280_pressure;Samples;Min_cycle;Max_cycle;Signal;HPM_P1;HPM_P2
2021/04/01 00:00:00;;;;;;;15.77;12.80;;;;;;;30.22;56.96;100711.34;5067474;27;66352;-36
2021/04/01 00:02:32;;;;;;;13.30;11.82;;;;;;;30.31;57.35;100713.78;5063426;27;69119;-37
2021/04/01 00:05:02;;;;;;;21.85;11.07;;;;;;;30.35;56.02;100713.13;5071919;27;64985;-36
2021/04/01 00:07:32;;;;;;;12.60;11.43;;;;;;;30.42;56.98;100713.06;5072338;28;70461;-39
2021/04/01 00:10:06;;;;;;;13.55;10.73;;;;;;;30.46;57.34;100717.81;5069802;27;66268;-36
2021/04/01 00:12:38;;;;;;;21.85;12.38;;;;;;;30.44;58.15;100719.09;5069996;27;69266;-35
2021/04/01 00:15:09;;;;;;;19.25;12.00;;;;;;;30.51;57.36;100719.88;5063272;28;65922;-35
2021/04/01 00:17:40;;;;;;;13.05;11.77;;;;;;;30.56;57.75;100728.13;5059581;27;69372;-35
2021/04/01 00:20:13;;;;;;;22.23;11.57;;;;;;;30.60;58.46;100729.38;5071693;27;66658;-35
2021/04/01 00:22:43;;;;;;;12.38;10.60;;;;;;;30.65;57.89;100731.41;5077046;27;71451;-35
2021/04/01 00:25:16;;;;;;;23.55;10.93;;;;;;;30.64;58.04;100735.16;5068217;27;65455;-35
2021/04/01 00:27:46;;;;;;;11.60;10.57;;;;;;;30.66;58.42;100727.66;5056745;27;70574;-34
2021/04/01 00:30:16;;;;;;;11.70;10.45;;;;;;;30.70;58.26;100732.41;5066655;28;66059;-35
2021/04/01 00:32:47;;;;;;;26.73;10.88;;;;;;;30.76;58.78;100740.66;5079634;27;71302;-36
2021/04/01 00:35:17;;;;;;;13.38;9.95;;;;;;;30.78;57.79;100741.28;5082897;27;66356;-36
2021/04/01 00:37:49;;;;;;;11.80;10.05;;;;;;;30.80;59.09;100750.03;5076609;27;70316;-35
2021/04/01 00:40:22;;;;;;;19.65;10.43;;;;;;;30.84;59.11;100751.25;5077032;27;66098;-35
2021/04/01 00:42:52;;;;;;;16.35;10.50;;;;;;;30.89;59.24;100751.41;5073601;28;69887;-34
2021/04/01 00:45:22;;;;;;;15.05;10.40;;;;;;;30.95;58.97;100758.63;5073008;27;64713;-36
2021/04/01 00:47:53;;;;;;;12.00;9.80;;;;;;;30.95;58.82;100769.47;5071032;28;70230;-34
2021/04/01 00:50:28;;;;;;;10.57;9.50;;;;;;;30.92;59.65;100776.19;5076888;27;65862;-35
2021/04/01 00:52:59;;;;;;;16.25;10.20;;;;;;;30.98;58.92;100769.03;5065889;27;70131;-34
2021/04/01 00:55:28;;;;;;;11.15;9.65;;;;;;;31.02;59.00;100777.53;5059879;27;66623;-38
2021/04/01 00:58:03;;;;;;;10.95;9.73;;;;;;;31.04;59.27;100778.97;5068482;28;69307;-35
2021/04/01 01:00:36;;;;;;;15.60;9.77;;;;;;;31.10;58.64;100780.78;5066909;27;66900;-36
2021/04/01 01:03:06;;;;;;;10.00;9.05;;;;;;;31.10;58.17;100786.19;5066653;27;70133;-34
2021/04/01 01:05:36;;;;;;;10.57;9.48;;;;;;;31.15;58.12;100782.81;5070383;27;65372;-34
2021/04/01 01:08:05;;;;;;;11.25;9.35;;;;;;;31.12;58.12;100780.53;5065269;27;69876;-34
2021/04/01 01:10:35;;;;;;;10.20;9.30;;;;;;;31.06;57.66;100779.56;5071300;28;67218;-35
2021/04/01 01:13:07;;;;;;;10.45;9.63;;;;;;;31.15;57.67;100786.38;5065575;28;69723;-35
2021/04/01 01:15:40;;;;;;;13.93;9.48;;;;;;;31.16;58.08;100782.59;5067970;27;67026;-35
2021/04/01 01:18:10;;;;;;;15.93;9.50;;;;;;;31.22;57.16;100797.13;5054802;28;70330;-34
2021/04/01 01:20:40;;;;;;;19.27;9.95;;;;;;;31.13;57.13;100784.94;5067462;28;64988;-34
2021/04/01 01:23:18;;;;;;;10.52;9.07;;;;;;;31.26;57.42;100808.31;5068586;27;69107;-34
2021/04/01 01:25:48;;;;;;;9.80;8.98;;;;;;;31.25;57.00;100795.84;5067797;28;66194;-35
2021/04/01 01:28:17;;;;;;;10.40;9.60;;;;;;;31.32;57.20;100808.28;5061771;28;70772;-34
2021/04/01 01:30:46;;;;;;;11.07;9.88;;;;;;;31.32;57.10;100807.44;5070174;28;65233;-35
2021/04/01 02:36:12;;;;;;;9.88;9.13;;;;;;;30.91;56.99;100817.03;5069379;27;43830;-38
2021/04/01 02:38:44;;;;;;;10.47;9.47;;;;;;;31.00;56.15;100799.41;5064125;28;71096;-38
2021/04/01 02:41:17;;;;;;;9.82;8.95;;;;;;;31.19;55.66;100803.00;5063798;28;66414;-38
2021/04/01 02:43:48;;;;;;;9.48;8.88;;;;;;;31.34;55.92;100811.59;5070449;28;69174;-37
2021/04/01 02:46:18;;;;;;;10.00;9.10;;;;;;;31.43;55.13;100806.72;5067852;27;66019;-38
2021/04/01 02:48:49;;;;;;;11.02;9.20;;;;;;;31.54;54.89;100800.56;5061327;28;69820;-38
2021/04/01 02:51:19;;;;;;;9.27;8.55;;;;;;;31.58;54.85;100796.31;5064869;28;66524;-38
2021/04/01 02:53:49;;;;;;;9.88;9.27;;;;;;;31.69;54.53;100802.88;5076739;27;69663;-38
2021/04/01 02:56:19;;;;;;;10.00;9.10;;;;;;;31.76;54.71;100802.78;5066443;27;65971;-37
2021/04/01 02:58:49;;;;;;;10.27;8.70;;;;;;;31.82;54.48;100808.13;5056606;27;70173;-37
2021/04/01 03:01:21;;;;;;;9.55;8.50;;;;;;;31.87;53.99;100804.72;5063628;27;66008;-37
2021/04/01 03:03:53;;;;;;;;;;;;;;;31.87;54.11;100802.00;5064315;27;69786;-37
2021/04/01 03:06:26;;;;;;;9.32;8.60;;;;;;;32.00;53.85;100791.00;5067338;27;66289;-37
2021/04/01 03:08:59;;;;;;;8.30;7.80;;;;;;;32.04;53.23;100800.34;5067862;27;69717;-37
2021/04/01 03:11:30;;;;;;;9.77;9.07;;;;;;;32.10;53.19;100795.06;5064477;27;65992;-40
2021/04/01 03:14:00;;;;;;;9.60;8.63;;;;;;;32.05;53.30;100785.72;5065747;27;69915;-37
2021/04/01 03:16:30;;;;;;;9.70;8.95;;;;;;;32.15;53.10;100785.19;5058104;27;65097;-38
2021/04/01 03:19:00;;;;;;;9.30;8.75;;;;;;;32.20;52.72;100793.44;5078583;27;69500;-38
2021/04/01 03:21:30;;;;;;;10.10;9.20;;;;;;;32.22;52.56;100787.78;5064274;27;65843;-38
2021/04/01 03:24:01;;;;;;;9.80;9.20;;;;;;;32.30;52.81;100787.44;5064146;28;69675;-38
2021/04/01 03:26:31;;;;;;;10.00;9.38;;;;;;;32.31;52.55;100777.41;5064486;27;66466;-38
2021/04/01 03:29:01;;;;;;;11.63;9.68;;;;;;;32.33;52.13;100762.56;5062830;28;70093;-37
2021/04/01 03:31:32;;;;;;;10.32;9.50;;;;;;;32.36;52.02;100755.84;5057419;28;65977;-37
2021/04/01 03:34:02;;;;;;;9.77;9.15;;;;;;;32.43;52.12;100765.53;5063802;28;69942;-36
2021/04/01 03:36:32;;;;;;;10.88;10.07;;;;;;;32.45;52.47;100768.00;5049913;27;65807;-38
2021/04/01 03:39:04;;;;;;;11.23;10.35;;;;;;;32.46;52.07;100759.66;5051499;28;70557;-37
2021/04/01 03:41:34;;;;;;;10.93;10.25;;;;;;;32.47;52.42;100760.47;5047416;28;66626;-38
2021/04/01 03:44:05;;;;;;;11.45;10.52;;;;;;;32.47;51.98;100749.63;5054514;28;70008;-38
2021/04/01 03:46:36;;;;;;;11.73;10.90;;;;;;;32.49;52.35;100748.31;5049213;28;65482;-38
2021/04/01 03:49:06;;;;;;;11.60;10.60;;;;;;;32.53;51.77;100748.69;5053784;28;70086;-38
2021/04/01 03:51:36;;;;;;;11.43;10.40;;;;;;;32.56;51.58;100747.38;5047704;28;65863;-38
2021/04/01 03:54:09;;;;;;;10.63;9.77;;;;;;;32.61;51.87;100739.38;5049251;28;69738;-38
2021/04/01 03:56:48;;;;;;;11.10;10.18;;;;;;;32.62;51.33;100735.56;5051690;28;65854;-38
2021/04/01 03:59:23;;;;;;;12.38;10.27;;;;;;;32.65;51.41;100740.53;5044701;28;69043;-38
2021/04/01 04:02:09;;;;;;;10.90;10.20;;;;;;;32.67;51.48;100738.41;5047372;28;66220;-37
2021/04/01 04:10:24;;;;;;;10.60;9.90;;;;;;;32.75;51.54;100712.78;5042470;28;69343;-37
2021/04/01 04:15:33;;;;;;;10.73;10.07;;;;;;;32.82;51.15;100711.63;5038849;28;70536;-37
2021/04/01 04:18:04;;;;;;;10.38;9.75;;;;;;;32.84;50.85;100705.94;5038671;28;65214;-37
2021/04/01 04:20:34;;;;;;;11.15;9.98;;;;;;;32.88;51.07;100707.13;5039514;28;69649;-38
2021/04/01 04:23:06;;;;;;;10.57;9.75;;;;;;;32.89;50.92;100704.16;5036143;28;66610;-37
2021/04/01 04:25:37;;;;;;;10.70;10.05;;;;;;;32.81;50.62;100682.78;5046933;28;69202;-39
2021/04/01 04:30:38;;;;;;;11.20;10.43;;;;;;;32.78;50.69;100661.53;5039174;28;69858;-38
2021/04/01 04:33:08;;;;;;;12.38;10.80;;;;;;;32.97;50.52;100672.25;5038127;28;66350;-38
2021/04/01 04:35:39;;;;;;;11.77;10.65;;;;;;;32.99;50.57;100673.66;5044395;28;69432;-38
2021/04/01 04:38:09;;;;;;;11.35;10.55;;;;;;;32.99;50.84;100661.94;5050260;28;64998;-38
2021/04/01 04:40:39;;;;;;;11.80;10.73;;;;;;;33.04;50.56;100662.09;5041123;28;69084;-38
2021/04/01 04:43:09;;;;;;;9.93;9.32;;;;;;;33.06;50.82;100652.63;5042832;28;65848;-39
2021/04/01 04:45:39;;;;;;;10.52;9.73;;;;;;;33.11;50.54;100651.91;5050251;28;70168;-38
2021/04/01 04:48:11;;;;;;;11.18;10.48;;;;;;;33.08;50.29;100627.94;5052372;28;66411;-37
2021/04/01 04:50:41;;;;;;;10.68;10.00;;;;;;;33.13;50.21;100633.50;5043380;28;69325;-39
2021/04/01 04:53:14;;;;;;;11.07;10.30;;;;;;;33.13;50.25;100634.31;5049660;28;65477;-38
2021/04/01 04:56:32;;;;;;;11.25;10.43;;;;;;;33.16;50.53;100624.84;5049184;28;69836;-39
2021/04/01 04:58:49;;;;;;;11.30;10.38;;;;;;;33.21;50.41;100622.22;5039465;28;65514;-38
2021/04/01 05:06:59;;;;;;;10.98;10.13;;;;;;;33.22;50.16;100588.53;5010107;28;69746;-38
2021/04/01 05:09:31;;;;;;;10.15;9.55;;;;;;;33.23;50.27;100578.47;5044513;28;65955;-38
2021/04/01 05:12:05;;;;;;;10.07;9.38;;;;;;;33.29;49.89;100583.78;5048771;28;69621;-37
2021/04/01 05:14:35;;;;;;;11.32;10.65;;;;;;;33.28;50.06;100571.25;5043780;28;66704;-37
2021/04/01 05:17:06;;;;;;;11.65;10.52;;;;;;;33.34;49.97;100574.88;5047941;28;69379;-38
2021/04/01 05:19:38;;;;;;;10.80;9.95;;;;;;;33.34;49.83;100555.84;5041561;28;66386;-38
2021/04/01 05:22:14;;;;;;;11.10;10.30;;;;;;;33.29;49.82;100548.44;5037115;28;69240;-38
2021/04/01 05:24:45;;;;;;;10.52;9.73;;;;;;;33.40;49.80;100551.31;5041705;28;66075;-39
2021/04/01 05:29:59;;;;;;;10.57;9.55;;;;;;;33.43;49.56;100546.22;5054080;28;66150;-38
2021/04/01 05:32:32;;;;;;;11.32;10.50;;;;;;;33.41;49.65;100526.63;5054315;28;69717;-37
2021/04/01 05:35:12;;;;;;;10.23;9.63;;;;;;;33.50;49.66;100525.13;5052064;28;65023;-38
2021/04/01 05:37:43;;;;;;;11.27;10.23;;;;;;;33.52;49.48;100516.75;5055643;28;69432;-37
2021/04/01 05:40:15;;;;;;;10.82;9.73;;;;;;;33.53;49.88;100512.97;5057290;28;66124;-38
2021/04/01 05:42:51;;;;;;;10.68;9.88;;;;;;;33.56;49.43;100507.03;5054736;28;69362;-38
2021/04/01 05:45:29;;;;;;;10.52;9.75;;;;;;;33.46;49.54;100485.09;5055462;28;65359;-38
2021/04/01 05:48:09;;;;;;;10.30;9.38;;;;;;;33.55;49.30;100473.59;5057419;28;70115;-37
2021/04/01 06:04:41;;;;;;;11.48;10.35;;;;;;;33.79;49.25;100447.03;5055100;28;69891;-37
2021/04/01 06:07:26;;;;;;;10.57;9.82;;;;;;;33.68;49.21;100418.00;5062517;28;65533;-37
2021/04/01 06:09:58;;;;;;;10.07;9.48;;;;;;;33.71;49.16;100412.09;5055351;28;69810;-37
2021/04/01 06:12:32;;;;;;;;;;;;;;;33.79;48.90;100425.25;5056520;28;65319;-38
2021/04/01 06:15:12;;;;;;;10.18;9.30;;;;;;;33.75;48.77;100396.91;5056792;28;69146;-37
2021/04/01 06:17:48;;;;;;;10.68;9.85;;;;;;;33.94;48.86;100412.94;5057654;28;65443;-37
2021/04/01 06:20:20;;;;;;;10.55;9.70;;;;;;;33.98;48.79;100405.91;5057666;28;68969;-37
2021/04/01 06:22:54;;;;;;;14.65;10.45;;;;;;;33.80;48.72;100361.59;5055931;28;66368;-39
2021/04/01 06:25:28;;;;;;;9.95;9.35;;;;;;;34.00;48.78;100390.97;5058248;28;69685;-38
2021/04/01 06:28:02;;;;;;;10.55;9.75;;;;;;;34.06;48.85;100397.31;5057913;28;65783;-37
2021/04/01 06:30:58;;;;;;;10.50;9.80;;;;;;;34.04;48.49;100394.00;5056667;28;70546;-37
2021/04/01 06:33:28;;;;;;;10.55;9.85;;;;;;;34.09;48.51;100380.47;5044351;28;65616;-37
2021/04/01 06:36:04;;;;;;;10.70;10.00;;;;;;;34.13;48.59;100391.66;5056165;28;70160;-38
2021/04/01 06:38:37;;;;;;;10.55;9.85;;;;;;;34.14;48.54;100379.72;5058553;28;66324;-37
2021/04/01 06:41:28;;;;;;;11.00;10.07;;;;;;;34.15;48.40;100378.63;5050009;28;69267;-39
2021/04/01 06:44:28;;;;;;;10.77;9.73;;;;;;;34.00;48.38;100350.16;5056610;28;66088;-38
2021/04/01 06:47:12;;;;;;;10.02;9.32;;;;;;;34.17;48.59;100360.16;5054374;28;70714;-37
2021/04/01 06:50:06;;;;;;;10.65;9.65;;;;;;;34.18;48.61;100357.16;5056017;28;65065;-41
2021/04/01 06:52:42;;;;;;;11.10;10.15;;;;;;;34.21;48.68;100345.78;5049220;28;69238;-38
2021/04/01 06:55:44;;;;;;;10.05;9.35;;;;;;;34.21;48.22;100337.63;5056570;28;65095;-37
2021/04/01 06:58:31;;;;;;;11.50;10.60;;;;;;;34.09;48.43;100309.72;5055829;28;69299;-39
2021/04/01 07:01:38;;;;;;;10.40;9.75;;;;;;;34.36;48.20;100325.25;5056378;28;65291;-37
2021/04/01 07:04:12;;;;;;;10.68;9.98;;;;;;;34.35;48.20;100329.88;5056884;28;69789;-38
2021/04/01 07:06:48;;;;;;;10.50;9.90;;;;;;;34.37;48.20;100318.72;5056379;28;65203;-43
2021/04/01 07:09:33;;;;;;;10.55;9.85;;;;;;;34.25;48.17;100291.66;5056805;28;69984;-38
2021/04/01 07:12:10;;;;;;;11.68;10.63;;;;;;;34.41;48.26;100311.69;5053727;28;66331;-38
2021/04/01 07:14:46;;;;;;;9.40;8.80;;;;;;;34.40;48.16;100293.69;5059177;28;70621;-38
2021/04/01 07:17:28;;;;;;;9.25;8.75;;;;;;;34.48;48.06;100298.66;5057142;28;66768;-37
2021/04/01 07:48:56;;;;;;;10.93;10.23;;;;;;;34.81;47.30;100254.00;5054338;28;70122;-38
2021/04/01 07:54:42;;;;;;;11.60;9.77;;;;;;;34.91;46.95;100239.66;5041877;28;69780;-38
2021/04/01 07:57:40;;;;;;;11.20;10.32;;;;;;;34.91;46.93;100234.19;5043792;28;65970;-38
2021/04/01 08:05:40;;;;;;;10.02;9.52;;;;;;;34.88;46.73;100212.91;5055505;28;68806;-37
2021/04/01 08:08:12;;;;;;;10.70;9.98;;;;;;;35.01;47.35;100220.59;5055023;28;66060;-38
2021/04/01 08:10:45;;;;;;;10.93;10.02;;;;;;;35.07;46.62;100222.31;5052607;28;71055;-38
2021/04/01 08:13:27;;;;;;;11.57;10.57;;;;;;;34.92;46.84;100197.69;5058171;28;66461;-38
2021/04/01 08:16:09;;;;;;;11.07;10.27;;;;;;;35.06;47.02;100215.22;5054318;28;70728;-38
2021/04/01 08:18:42;;;;;;;11.25;10.20;;;;;;;35.08;46.65;100221.22;5051374;28;65946;-38
2021/04/01 08:21:13;;;;;;;11.07;10.10;;;;;;;35.07;46.77;100214.13;5049834;28;69945;-38
2021/04/01 08:24:12;;;;;;;10.80;10.10;;;;;;;35.05;47.16;100213.56;5048960;28;67067;-37
2021/04/01 08:36:47;;;;;;;;;;;;;;;34.95;46.80;100179.97;5045471;28;65260;-38
2021/04/01 08:39:38;;;;;;;11.13;10.23;;;;;;;35.30;46.80;100201.13;5050654;28;71478;-37
2021/04/01 08:43:06;;;;;;;10.60;9.80;;;;;;;35.24;46.80;100196.75;5050799;28;65090;-39
2021/04/01 08:46:14;;;;;;;11.15;10.48;;;;;;;35.26;46.70;100186.41;5033893;28;70089;-39
2021/04/01 08:49:07;;;;;;;11.18;10.40;;;;;;;35.23;46.85;100173.31;5047927;28;65972;-39
2021/04/01 08:52:21;;;;;;;10.68;10.00;;;;;;;35.22;46.93;100190.78;5048188;28;69720;-38
2021/04/01 08:55:14;;;;;;;11.30;10.52;;;;;;;35.23;47.17;100186.94;5042847;28;65972;-38
2021/04/01 08:57:50;;;;;;;10.73;10.00;;;;;;;35.27;46.98;100194.34;5041968;28;69841;-38
2021/04/01 09:00:22;;;;;;;11.73;10.60;;;;;;;35.25;46.84;100184.78;5047938;28;65309;-39
2021/04/01 09:02:54;;;;;;;10.93;10.23;;;;;;;35.29;46.95;100191.31;5049405;28;71864;-37
2021/04/01 09:05:26;;;;;;;11.10;10.27;;;;;;;35.25;47.08;100190.22;5047904;28;65474;-37
2021/04/01 09:08:07;;;;;;;11.45;9.98;;;;;;;35.31;47.21;100191.88;5046119;28;70179;-37
2021/04/01 09:10:50;;;;;;;10.48;9.88;;;;;;;35.30;47.09;100187.50;5049319;28;65083;-38
2021/04/01 09:13:32;;;;;;;11.07;10.35;;;;;;;35.28;46.73;100178.78;5054127;28;69129;-38
2021/04/01 09:16:16;;;;;;;;;;;;;;;35.32;47.02;100179.88;5055553;28;65943;-38
2021/04/01 09:18:47;;;;;;;11.93;10.75;;;;;;;35.35;47.14;100168.44;5042589;28;69549;-38
2021/04/01 09:21:30;;;;;;;11.52;10.82;;;;;;;35.47;46.87;100188.13;5051366;28;66151;-38
2021/04/01 09:24:02;;;;;;;11.18;10.50;;;;;;;35.36;46.79;100159.19;5056523;28;69440;-38
2021/04/01 09:26:32;;;;;;;12.45;11.35;;;;;;;35.51;46.77;100183.75;5049441;28;66037;-37
2021/04/01 09:29:07;;;;;;;12.00;10.95;;;;;;;35.50;46.68;100179.41;5045879;28;69846;-38
2021/04/01 09:31:47;;;;;;;12.85;11.70;;;;;;;35.50;47.25;100190.31;5067399;28;65049;-40
2021/04/01 09:34:19;;;;;;;12.00;11.00;;;;;;;35.50;47.07;100193.03;5051849;28;69161;-39
2021/04/01 09:36:49;;;;;;;12.27;11.10;;;;;;;35.48;46.63;100178.84;5047950;28;66022;-38
2021/04/01 09:39:31;;;;;;;11.57;10.70;;;;;;;35.32;46.85;100163.53;5052765;28;70002;-37
2021/04/01 09:42:06;;;;;;;12.32;11.32;;;;;;;35.51;47.08;100193.84;5052105;28;66040;-38
2021/04/01 09:44:48;;;;;;;12.43;11.25;;;;;;;35.51;46.70;100197.41;5053484;28;69838;-38
2021/04/01 09:47:55;;;;;;;12.25;11.13;;;;;;;35.43;47.02;100192.47;5049602;28;66048;-38
2021/04/01 09:50:38;;;;;;;12.40;11.48;;;;;;;35.37;47.05;100174.44;5034592;28;70578;-38
2021/04/01 09:53:25;;;;;;;12.75;11.50;;;;;;;35.35;47.14;100176.63;5053931;28;65690;-38
2021/04/01 09:55:58;;;;;;;12.80;11.48;;;;;;;35.41;47.29;100180.19;5041171;28;70668;-38
2021/04/01 09:58:39;;;;;;;13.05;12.05;;;;;;;35.44;47.04;100188.66;5040967;28;66935;-38
2021/04/01 10:04:05;;;;;;;13.13;12.13;;;;;;;35.43;47.22;100186.19;5045922;28;65389;-38
2021/04/01 10:06:43;;;;;;;13.05;12.05;;;;;;;35.41;47.88;100183.75;5052668;28;68944;-39
2021/04/01 10:09:22;;;;;;;13.80;12.55;;;;;;;35.36;47.93;100194.63;5049363;28;67588;-37
2021/04/01 10:11:54;;;;;;;15.98;13.30;;;;;;;35.38;48.70;100178.81;5040537;28;70280;-37
2021/04/01 10:14:27;;;;;;;16.17;14.20;;;;;;;35.35;48.83;100190.25;5044469;28;66668;-37
2021/04/01 10:17:20;;;;;;;31.17;14.63;;;;;;;35.35;48.79;100193.81;5050856;28;69888;-39
2021/04/01 10:19:59;;;;;;;45.75;16.60;;;;;;;35.32;49.03;100197.06;5042448;28;65367;-39
2021/04/01 10:22:35;;;;;;;26.98;16.95;;;;;;;35.27;48.75;100193.50;5050232;28;71146;-37
2021/04/01 10:30:24;;;;;;;44.63;17.40;;;;;;;35.28;49.60;100203.34;5051574;28;65995;-39
2021/04/01 10:33:08;;;;;;;36.08;16.42;;;;;;;35.13;50.25;100177.66;5043891;28;69097;-39
2021/04/01 10:35:42;;;;;;;29.75;15.90;;;;;;;35.31;49.70;100209.06;5043890;28;66206;-39
2021/04/01 10:38:14;;;;;;;22.17;17.25;;;;;;;35.16;50.08;100183.63;5042136;28;70654;-38
2021/04/01 10:40:49;;;;;;;27.65;17.23;;;;;;;35.20;50.25;100187.47;5046581;28;66110;-38
2021/04/01 10:43:20;;;;;;;19.45;16.05;;;;;;;35.27;50.15;100207.13;5045403;28;70517;-39
2021/04/01 10:45:53;;;;;;;19.33;16.73;;;;;;;35.27;50.35;100216.16;5041320;28;66027;-38
2021/04/01 10:48:36;;;;;;;20.00;17.27;;;;;;;35.36;49.92;100228.16;5043108;28;69732;-37
2021/04/01 10:51:08;;;;;;;22.73;17.35;;;;;;;35.36;50.02;100208.28;5046354;28;66711;-40
2021/04/01 10:53:44;;;;;;;18.37;16.70;;;;;;;35.32;49.84;100218.06;5052405;28;69634;-38
2021/04/01 10:56:15;;;;;;;18.77;16.90;;;;;;;35.30;49.91;100226.53;5046093;28;65861;-38
2021/04/01 10:58:54;;;;;;;19.60;17.58;;;;;;;35.12;50.57;100214.16;5043717;28;69910;-37
2021/04/01 11:01:38;;;;;;;21.23;17.58;;;;;;;35.20;50.63;100236.56;5045777;28;65480;-38
2021/04/01 11:04:12;;;;;;;21.10;17.55;;;;;;;35.23;50.75;100236.03;5048479;28;71167;-37
2021/04/01 11:06:46;;;;;;;19.15;17.25;;;;;;;35.14;50.86;100238.44;5045800;28;66236;-38
2021/04/01 11:09:19;;;;;;;19.25;17.50;;;;;;;35.21;50.98;100238.19;5043119;28;69783;-39
2021/04/01 11:12:36;;;;;;;20.45;18.00;;;;;;;35.23;50.73;100246.94;5048697;28;65978;-38
2021/04/01 11:14:52;;;;;;;19.33;17.50;;;;;;;35.16;50.87;100246.34;5042306;28;71104;-39
2021/04/01 11:17:25;;;;;;;18.98;17.00;;;;;;;35.14;51.53;100250.16;5046495;28;65652;-38
2021/04/01 11:19:58;;;;;;;25.50;19.45;;;;;;;35.15;51.39;100253.69;5047284;28;69348;-38
2021/04/01 11:22:28;;;;;;;20.23;18.02;;;;;;;35.17;50.95;100253.44;5047376;28;66741;-38
2021/04/01 11:25:13;;;;;;;19.92;17.95;;;;;;;34.98;51.92;100237.50;5044047;28;69587;-37
2021/04/01 11:27:53;;;;;;;21.10;18.88;;;;;;;35.16;51.39;100262.69;5038068;28;66182;-38
2021/04/01 11:30:52;;;;;;;25.67;17.60;;;;;;;35.04;52.06;100266.41;5044532;28;70236;-37
2021/04/01 11:33:25;;;;;;;29.00;18.23;;;;;;;35.02;51.96;100274.06;5041216;28;66509;-38
2021/04/01 11:38:54;;;;;;;21.08;18.88;;;;;;;34.92;52.09;100268.53;5036975;28;66839;-37
2021/04/01 11:41:48;;;;;;;27.58;20.45;;;;;;;34.92;52.17;100287.59;5040466;28;69651;-38
2021/04/01 11:44:22;;;;;;;24.70;18.30;;;;;;;34.95;52.48;100278.09;5041786;28;65714;-38
2021/04/01 11:46:53;;;;;;;21.58;19.00;;;;;;;34.94;52.05;100288.16;5043072;28;69324;-38
2021/04/01 11:49:23;;;;;;;21.70;18.63;;;;;;;34.99;52.17;100287.34;5044362;28;65131;-38
2021/04/01 11:51:54;;;;;;;22.13;19.85;;;;;;;34.91;52.33;100286.78;5045601;28;70461;-38
2021/04/01 11:54:25;;;;;;;19.70;17.70;;;;;;;34.93;52.03;100290.03;5044373;28;66124;-39
2021/04/01 11:56:56;;;;;;;21.08;17.73;;;;;;;34.91;52.35;100296.88;5043757;28;71171;-37
2021/04/01 11:59:35;;;;;;;19.70;17.70;;;;;;;34.89;52.02;100308.03;5046423;28;65268;-39
2021/04/01 12:02:10;;;;;;;20.08;18.13;;;;;;;34.80;52.21;100295.13;5037452;28;69683;-38
2021/04/01 12:04:45;;;;;;;20.25;18.20;;;;;;;34.87;52.26;100314.81;5042948;28;65794;-39
2021/04/01 12:07:15;;;;;;;22.08;17.38;;;;;;;34.90;52.67;100317.81;5038214;28;69780;-38
2021/04/01 12:09:50;;;;;;;19.15;17.25;;;;;;;34.74;51.51;100321.50;5045013;28;64908;-38
2021/04/01 12:12:29;;;;;;;18.35;16.60;;;;;;;34.37;49.58;100324.16;5040458;28;70615;-39
2021/04/01 12:15:01;;;;;;;17.60;15.85;;;;;;;34.03;48.53;100311.53;5043977;28;66714;-38
2021/04/01 12:17:36;;;;;;;16.80;15.10;;;;;;;33.84;46.67;100331.97;5041459;28;70298;-39
2021/04/01 12:20:10;;;;;;;16.48;15.15;;;;;;;33.60;45.49;100334.16;5041004;28;65403;-38
2021/04/01 12:22:42;;;;;;;16.45;15.18;;;;;;;33.45;45.62;100342.88;5040975;28;69942;-37
2021/04/01 12:25:20;;;;;;;16.85;15.40;;;;;;;33.31;43.45;100358.72;5043809;28;65654;-38
2021/04/01 12:28:21;;;;;;;15.13;14.13;;;;;;;33.16;43.25;100361.22;5046598;28;70427;-37
2021/04/01 12:31:13;;;;;;;15.02;13.48;;;;;;;33.05;43.33;100356.69;5038944;28;65970;-38
2021/04/01 12:33:51;;;;;;;15.00;13.73;;;;;;;33.05;42.72;100365.66;5035725;28;70578;-38
2021/04/01 12:36:36;;;;;;;14.75;13.40;;;;;;;32.88;42.37;100370.25;5037537;28;66752;-38
2021/04/01 12:39:11;;;;;;;15.15;13.98;;;;;;;32.81;42.84;100375.81;5035970;28;70717;-37
2021/04/01 12:41:50;;;;;;;15.93;13.43;;;;;;;32.79;43.04;100388.84;5040195;28;65523;-37
2021/04/01 12:44:20;;;;;;;14.88;13.45;;;;;;;32.74;43.22;100391.47;5050344;28;70768;-38
2021/04/01 12:46:51;;;;;;;14.35;13.23;;;;;;;32.63;42.00;100403.22;5039641;28;65819;-38
2021/04/01 12:49:36;;;;;;;21.23;13.00;;;;;;;32.55;41.54;100411.75;5034164;28;69902;-38
2021/04/01 12:52:10;;;;;;;14.25;12.57;;;;;;;32.47;42.47;100411.06;5036902;28;67169;-36
2021/04/01 12:54:43;;;;;;;;;;;;;;;32.24;42.94;100413.84;5040127;28;70096;-38
2021/04/01 12:57:20;;;;;;;17.15;13.23;;;;;;;32.27;42.82;100410.66;5041949;28;65404;-38
2021/04/01 13:00:28;;;;;;;17.70;12.93;;;;;;;32.24;42.13;100427.41;5045222;28;70804;-38
2021/04/01 13:03:00;;;;;;;13.82;12.27;;;;;;;32.22;42.63;100440.41;5044802;28;66067;-39
2021/04/01 13:05:32;;;;;;;13.27;12.03;;;;;;;32.14;41.98;100440.78;5048269;28;69358;-39
2021/04/01 13:11:00;;;;;;;13.88;12.38;;;;;;;32.07;43.25;100445.50;5022091;28;69779;-43
2021/04/01 13:13:32;;;;;;;15.40;12.43;;;;;;;32.00;43.38;100451.88;5050308;28;66202;-38
2021/04/01 13:16:05;;;;;;;23.83;12.65;;;;;;;32.05;43.55;100460.13;5043902;28;69820;-39
2021/04/01 13:18:39;;;;;;;16.52;12.55;;;;;;;32.03;43.80;100466.84;5039654;28;65980;-38
2021/04/01 13:26:38;;;;;;;20.52;12.02;;;;;;;31.96;42.69;100475.13;5035596;28;70226;-38
2021/04/01 13:29:09;;;;;;;;;;;;;;;31.83;42.10;100488.91;5033871;28;66281;-39
2021/04/01 13:35:04;;;;;;;12.48;11.45;;;;;;;31.81;41.82;100501.88;5033564;28;65904;-38
2021/04/01 13:37:27;;;;;;;12.95;11.25;;;;;;;31.67;40.51;100505.88;5031796;28;69265;-38
2021/04/01 13:40:16;;;;;;;11.93;10.73;;;;;;;31.67;40.34;100516.72;5036705;28;65648;-38
2021/04/01 13:42:59;;;;;;;13.10;10.15;;;;;;;31.58;40.39;100530.63;5037569;28;69902;-38
2021/04/01 13:45:31;;;;;;;11.45;10.07;;;;;;;31.51;41.19;100529.91;5036553;28;65089;-39
2021/04/01 13:48:06;;;;;;;12.32;11.02;;;;;;;31.42;40.53;100535.88;5039091;28;70519;-39
2021/04/01 13:50:41;;;;;;;12.32;10.15;;;;;;;31.32;40.47;100531.00;5030784;28;66889;-40
2021/04/01 13:56:28;;;;;;;10.18;9.32;;;;;;;31.22;39.54;100545.09;5032978;28;65560;-37
2021/04/01 13:59:22;;;;;;;11.77;10.57;;;;;;;31.11;39.22;100535.88;5030260;28;70622;-37
2021/04/01 14:10:36;;;;;;;9.90;9.40;;;;;;;31.11;40.54;100562.97;5033754;28;70312;-37
2021/04/01 14:13:10;;;;;;;10.05;9.13;;;;;;;31.04;40.59;100567.66;5033318;28;65860;-38
2021/04/01 14:15:51;;;;;;;9.75;9.13;;;;;;;31.05;40.10;100565.78;5041833;28;69082;-39
2021/04/01 14:18:31;;;;;;;9.55;8.70;;;;;;;30.99;39.73;100564.81;5039609;28;68230;-39
2021/04/01 14:21:21;;;;;;;8.55;8.13;;;;;;;31.01;40.06;100562.72;5039742;28;70925;-37
2021/04/01 14:23:55;;;;;;;9.18;8.57;;;;;;;31.01;39.62;100572.69;5035619;28;66838;-41
2021/04/01 14:26:35;;;;;;;8.27;7.82;;;;;;;30.92;39.39;100569.47;5039123;28;70015;-39
2021/04/01 14:29:09;;;;;;;8.88;8.13;;;;;;;30.93;39.28;100571.97;5039995;28;65353;-39
2021/04/01 14:31:44;;;;;;;8.73;8.05;;;;;;;30.82;39.58;100578.16;5037475;28;69887;-39
2021/04/01 14:34:18;;;;;;;7.82;7.22;;;;;;;30.84;39.18;100584.19;5029749;28;66391;-41
2021/04/01 14:36:50;;;;;;;8.00;7.40;;;;;;;30.76;39.01;100592.59;5036469;28;70082;-37
2021/04/01 14:39:20;;;;;;;;;;;;;;;30.61;38.87;100595.66;5038133;28;65688;-38
2021/04/01 14:42:10;;;;;;;7.63;6.88;;;;;;;30.68;39.73;100596.41;5041430;28;69751;-38
2021/04/01 14:44:43;;;;;;;7.70;7.07;;;;;;;30.64;39.47;100595.19;5037004;28;65091;-38
2021/04/01 14:47:16;;;;;;;18.42;7.63;;;;;;;30.60;39.59;100615.66;5031359;28;69923;-38
2021/04/01 14:49:48;;;;;;;9.13;7.05;;;;;;;30.50;39.35;100605.34;5035860;28;66148;-38
2021/04/01 14:52:25;;;;;;;8.25;7.22;;;;;;;30.57;38.74;100620.69;5035477;28;69937;-39